sensor_id;sensor_type;location;lat;lon;timestamp;pressure;altitude;pressure_sealevel;temperature;humidity
79048;BME280;68680;50.764;6.120;2023-05-02T00:00:41;97142.72;;;-7.54;nan
79048;BME280;68680;50.764;6.120;2023-05-02T00:03:07;97137.56;;;-7.54;nan
79048;BME280;68680;50.764;6.120;2023-05-02T00:05:34;97146.28;;;-7.55;nan
79048;BME280;68680;50.764;6.120;2023-05-02T00:08:00;97153.38;;;-7.41;nan
79048;BME280;68680;50.764;6.120;2023-05-02T00:10:26;97140.13;;;-7.46;nan
79048;BME280;68680;50.764;6.120;2023-05-02T00:12:52;97150.47;;;-7.46;nan
79048;BME280;68680;50.764;6.120;2023-05-02T00:15:18;97149.81;;;-7.48;nan
79048;BME280;68680;50.764;6.120;2023-05-02T00:17:43;97153.09;;;-7.54;nan
79048;BME280;68680;50.764;6.120;2023-05-02T00:20:10;97158.25;;;-7.54;nan
79048;BME280;68680;50.764;6.120;2023-05-02T00:22:38;97152.78;;;-7.59;nan
79048;BME280;68680;50.764;6.120;2023-05-02T00:25:05;97145.97;;;-7.52;nan
79048;BME280;68680;50.764;6.120;2023-05-02T00:27:31;97153.09;;;-7.54;nan
79048;BME280;68680;50.764;6.120;2023-05-02T00:29:58;97155.03;;;-7.56;nan
79048;BME280;68680;50.764;6.120;2023-05-02T00:32:23;97152.13;;;-7.61;nan
79048;BME280;68680;50.764;6.120;2023-05-02T00:34:49;97150.84;;;-7.65;nan
79048;BME280;68680;50.764;6.120;2023-05-02T00:37:15;97153.13;;;-7.70;nan
79048;BME280;68680;50.764;6.120;2023-05-02T00:39:42;97154.41;;;-7.66;nan
79048;BME280;68680;50.764;6.120;2023-05-02T00:42:08;97157.31;;;-7.61;nan
79048;BME280;68680;50.764;6.120;2023-05-02T00:44:34;97159.13;;;-7.70;nan
79048;BME280;68680;50.764;6.120;2023-05-02T00:47:00;97165.41;;;-7.72;nan
79048;BME280;68680;50.764;6.120;2023-05-02T00:49:26;97172.22;;;-7.71;nan
79048;BME280;68680;50.764;6.120;2023-05-02T00:51:53;97169.28;;;-7.68;nan
79048;BME280;68680;50.764;6.120;2023-05-02T00:54:19;97168.31;;;-7.67;nan
79048;BME280;68680;50.764;6.120;2023-05-02T00:56:46;97183.84;;;-7.67;nan
79048;BME280;68680;50.764;6.120;2023-05-02T00:59:13;97179.00;;;-7.70;nan
79048;BME280;68680;50.764;6.120;2023-05-02T01:01:56;97183.56;;;-7.80;nan
79048;BME280;68680;50.764;6.120;2023-05-02T01:04:39;97185.81;;;-7.85;nan
79048;BME280;68680;50.764;6.120;2023-05-02T01:07:28;97192.00;;;-7.86;nan
79048;BME280;68680;50.764;6.120;2023-05-02T01:10:11;97198.13;;;-7.88;nan
79048;BME280;68680;50.764;6.120;2023-05-02T01:13:31;99798.78;;;9.87;87.61
79048;BME280;68680;50.764;6.120;2023-05-02T01:16:00;99805.13;;;9.86;88.39
79048;BME280;68680;50.764;6.120;2023-05-02T01:18:32;99805.94;;;9.86;87.63
79048;BME280;68680;50.764;6.120;2023-05-02T01:21:05;99799.41;;;9.82;87.23
79048;BME280;68680;50.764;6.120;2023-05-02T01:23:42;99804.97;;;9.74;88.13
79048;BME280;68680;50.764;6.120;2023-05-02T01:26:21;99806.63;;;9.69;88.79
79048;BME280;68680;50.764;6.120;2023-05-02T01:28:58;99806.41;;;9.70;88.78
79048;BME280;68680;50.764;6.120;2023-05-02T01:31:26;99804.38;;;9.66;88.83
79048;BME280;68680;50.764;6.120;2023-05-02T01:34:01;99807.81;;;9.73;89.70
79048;BME280;68680;50.764;6.120;2023-05-02T01:36:30;99806.00;;;9.67;89.12
79048;BME280;68680;50.764;6.120;2023-05-02T01:38:59;99814.63;;;9.69;88.81
79048;BME280;68680;50.764;6.120;2023-05-02T01:41:27;99819.75;;;9.70;89.08
79048;BME280;68680;50.764;6.120;2023-05-02T01:43:58;99822.03;;;9.60;88.74
79048;BME280;68680;50.764;6.120;2023-05-02T01:46:26;99821.97;;;9.67;88.75
79048;BME280;68680;50.764;6.120;2023-05-02T01:48:57;99827.31;;;9.67;89.77
79048;BME280;68680;50.764;6.120;2023-05-02T01:51:29;99834.69;;;9.71;89.08
79048;BME280;68680;50.764;6.120;2023-05-02T01:53:58;99827.94;;;9.62;89.21
79048;BME280;68680;50.764;6.120;2023-05-02T01:56:24;99833.44;;;9.67;89.47
79048;BME280;68680;50.764;6.120;2023-05-02T01:58:55;99828.78;;;9.49;89.18
79048;BME280;68680;50.764;6.120;2023-05-02T02:01:22;99834.31;;;9.55;89.21
79048;BME280;68680;50.764;6.120;2023-05-02T02:03:50;99840.66;;;9.60;89.48
79048;BME280;68680;50.764;6.120;2023-05-02T02:06:18;99838.19;;;9.59;88.95
79048;BME280;68680;50.764;6.120;2023-05-02T02:08:44;99834.53;;;9.53;89.35
79048;BME280;68680;50.764;6.120;2023-05-02T02:11:16;99838.59;;;9.62;88.54
79048;BME280;68680;50.764;6.120;2023-05-02T02:13:48;99847.41;;;9.56;88.04
79048;BME280;68680;50.764;6.120;2023-05-02T02:16:23;99845.38;;;9.52;88.66
79048;BME280;68680;50.764;6.120;2023-05-02T02:18:53;99852.13;;;9.54;89.24
79048;BME280;68680;50.764;6.120;2023-05-02T02:21:24;99849.44;;;9.67;89.19
79048;BME280;68680;50.764;6.120;2023-05-02T02:23:55;99839.00;;;9.66;88.80
79048;BME280;68680;50.764;6.120;2023-05-02T02:26:22;99843.91;;;9.62;89.33
79048;BME280;68680;50.764;6.120;2023-05-02T02:28:49;99846.38;;;9.57;88.99
79048;BME280;68680;50.764;6.120;2023-05-02T02:31:16;99848.03;;;9.65;89.25
79048;BME280;68680;50.764;6.120;2023-05-02T02:33:42;99849.47;;;9.61;88.67
79048;BME280;68680;50.764;6.120;2023-05-02T02:36:16;99858.47;;;9.60;89.55
79048;BME280;68680;50.764;6.120;2023-05-02T02:38:51;99856.41;;;9.62;89.17
79048;BME280;68680;50.764;6.120;2023-05-02T02:41:26;99851.72;;;9.57;89.11
79048;BME280;68680;50.764;6.120;2023-05-02T02:44:03;99854.19;;;9.59;88.91
79048;BME280;68680;50.764;6.120;2023-05-02T02:46:46;99846.56;;;9.75;90.07
79048;BME280;68680;50.764;6.120;2023-05-02T02:49:26;99848.41;;;9.75;88.88
79048;BME280;68680;50.764;6.120;2023-05-02T02:52:02;99848.38;;;9.81;89.06
79048;BME280;68680;50.764;6.120;2023-05-02T02:54:36;99849.81;;;9.84;88.05
79048;BME280;68680;50.764;6.120;2023-05-02T02:57:14;99847.38;;;9.82;88.70
79048;BME280;68680;50.764;6.120;2023-05-02T02:59:51;99853.50;;;9.83;88.82
79048;BME280;68680;50.764;6.120;2023-05-02T03:02:26;99849.41;;;9.87;88.49
79048;BME280;68680;50.764;6.120;2023-05-02T03:04:56;99852.25;;;9.85;88.67
79048;BME280;68680;50.764;6.120;2023-05-02T03:07:22;99855.09;;;9.97;88.19
79048;BME280;68680;50.764;6.120;2023-05-02T03:09:48;99856.34;;;9.95;88.26
79048;BME280;68680;50.764;6.120;2023-05-02T03:12:14;99854.91;;;9.92;88.25
79048;BME280;68680;50.764;6.120;2023-05-02T03:14:40;99859.03;;;9.88;88.38
79048;BME280;68680;50.764;6.120;2023-05-02T03:17:06;99859.41;;;9.98;88.48
79048;BME280;68680;50.764;6.120;2023-05-02T03:19:33;99861.66;;;10.01;87.65
79048;BME280;68680;50.764;6.120;2023-05-02T03:21:59;99860.59;;;10.02;87.79
79048;BME280;68680;50.764;6.120;2023-05-02T03:24:25;99861.22;;;10.04;87.83
79048;BME280;68680;50.764;6.120;2023-05-02T03:26:54;99862.44;;;10.08;87.69
79048;BME280;68680;50.764;6.120;2023-05-02T03:29:19;99864.50;;;10.06;88.28
79048;BME280;68680;50.764;6.120;2023-05-02T03:31:45;99864.69;;;10.11;88.52
79048;BME280;68680;50.764;6.120;2023-05-02T03:34:11;99867.00;;;10.01;87.65
79048;BME280;68680;50.764;6.120;2023-05-02T03:36:38;99867.84;;;9.88;87.17
79048;BME280;68680;50.764;6.120;2023-05-02T03:39:04;99876.59;;;10.09;87.99
79048;BME280;68680;50.764;6.120;2023-05-02T03:41:30;99876.59;;;10.09;87.48
79048;BME280;68680;50.764;6.120;2023-05-02T03:43:56;99884.19;;;10.18;87.72
79048;BME280;68680;50.764;6.120;2023-05-02T03:46:21;99879.22;;;10.15;87.47
79048;BME280;68680;50.764;6.120;2023-05-02T03:48:47;99882.94;;;10.21;88.30
79048;BME280;68680;50.764;6.120;2023-05-02T03:51:13;99882.34;;;10.12;85.95
79048;BME280;68680;50.764;6.120;2023-05-02T03:53:40;99884.38;;;10.10;86.33
79048;BME280;68680;50.764;6.120;2023-05-02T03:56:06;99890.72;;;10.09;86.91
79048;BME280;68680;50.764;6.120;2023-05-02T03:58:32;99883.81;;;9.95;86.24
79048;BME280;68680;50.764;6.120;2023-05-02T04:00:58;99892.19;;;10.05;86.28
79048;BME280;68680;50.764;6.120;2023-05-02T04:03:24;99896.88;;;10.10;87.36
79048;BME280;68680;50.764;6.120;2023-05-02T04:05:50;99898.56;;;9.98;86.30
79048;BME280;68680;50.764;6.120;2023-05-02T04:08:16;99910.66;;;9.94;85.70
79048;BME280;68680;50.764;6.120;2023-05-02T04:10:43;99900.59;;;10.02;86.00
79048;BME280;68680;50.764;6.120;2023-05-02T04:13:09;99910.66;;;10.00;86.72
79048;BME280;68680;50.764;6.120;2023-05-02T04:15:35;99907.56;;;10.03;86.27
79048;BME280;68680;50.764;6.120;2023-05-02T04:18:00;99918.03;;;9.98;86.04
79048;BME280;68680;50.764;6.120;2023-05-02T04:20:26;99907.56;;;10.03;85.59
79048;BME280;68680;50.764;6.120;2023-05-02T04:22:52;99922.34;;;9.99;85.37
79048;BME280;68680;50.764;6.120;2023-05-02T04:25:18;99916.38;;;9.90;85.44
79048;BME280;68680;50.764;6.120;2023-05-02T04:27:45;99921.94;;;9.89;86.21
79048;BME280;68680;50.764;6.120;2023-05-02T04:30:11;99920.06;;;9.96;86.19
79048;BME280;68680;50.764;6.120;2023-05-02T04:32:37;99928.69;;;9.98;86.14
79048;BME280;68680;50.764;6.120;2023-05-02T04:35:04;99929.06;;;10.08;86.71
79048;BME280;68680;50.764;6.120;2023-05-02T04:37:30;99943.84;;;10.04;86.07
79048;BME280;68680;50.764;6.120;2023-05-02T04:39:55;99929.31;;;10.00;86.40
79048;BME280;68680;50.764;6.120;2023-05-02T04:42:21;99938.53;;;9.91;86.62
79048;BME280;68680;50.764;6.120;2023-05-02T04:44:49;99941.81;;;10.00;86.85
79048;BME280;68680;50.764;6.120;2023-05-02T04:47:15;99940.16;;;10.05;86.95
79048;BME280;68680;50.764;6.120;2023-05-02T04:49:41;99946.94;;;10.01;86.16
79048;BME280;68680;50.764;6.120;2023-05-02T04:52:08;99951.25;;;9.96;86.26
79048;BME280;68680;50.764;6.120;2023-05-02T04:54:34;99950.19;;;10.03;86.46
79048;BME280;68680;50.764;6.120;2023-05-02T04:57:00;99952.22;;;10.08;86.59
79048;BME280;68680;50.764;6.120;2023-05-02T04:59:26;99957.16;;;10.04;86.86
79048;BME280;68680;50.764;6.120;2023-05-02T05:01:53;99958.38;;;10.08;86.31
79048;BME280;68680;50.764;6.120;2023-05-02T05:04:19;99964.13;;;10.05;85.96
79048;BME280;68680;50.764;6.120;2023-05-02T05:06:44;99961.66;;;10.10;87.10
79048;BME280;68680;50.764;6.120;2023-05-02T05:09:10;99972.75;;;10.07;86.99
79048;BME280;68680;50.764;6.120;2023-05-02T05:11:36;99976.00;;;10.03;86.81
79048;BME280;68680;50.764;6.120;2023-05-02T05:14:02;99975.44;;;9.94;87.53
79048;BME280;68680;50.764;6.120;2023-05-02T05:16:27;99976.03;;;9.96;87.32
79048;BME280;68680;50.764;6.120;2023-05-02T05:18:54;99977.66;;;9.97;87.92
79048;BME280;68680;50.764;6.120;2023-05-02T05:21:20;99991.63;;;9.99;87.13
79048;BME280;68680;50.764;6.120;2023-05-02T05:23:46;99992.44;;;10.00;87.55
79048;BME280;68680;50.764;6.120;2023-05-02T05:26:14;99991.63;;;9.99;87.07
79048;BME280;68680;50.764;6.120;2023-05-02T05:28:41;99993.69;;;9.84;86.68
79048;BME280;68680;50.764;6.120;2023-05-02T05:31:08;99995.09;;;9.80;86.32
79048;BME280;68680;50.764;6.120;2023-05-02T05:33:35;100001.44;;;9.79;87.33
79048;BME280;68680;50.764;6.120;2023-05-02T05:36:06;100012.94;;;9.79;88.09
79048;BME280;68680;50.764;6.120;2023-05-02T05:38:33;100014.16;;;9.77;87.20
79048;BME280;68680;50.764;6.120;2023-05-02T05:40:59;100025.44;;;9.66;87.20
79048;BME280;68680;50.764;6.120;2023-05-02T05:43:25;100027.06;;;9.67;87.13
79048;BME280;68680;50.764;6.120;2023-05-02T05:45:51;100032.19;;;9.68;86.44
79048;BME280;68680;50.764;6.120;2023-05-02T05:48:32;100029.72;;;9.67;86.80
79048;BME280;68680;50.764;6.120;2023-05-02T05:51:02;100031.56;;;9.53;86.10
79048;BME280;68680;50.764;6.120;2023-05-02T05:53:29;100030.91;;;9.44;86.70
79048;BME280;68680;50.764;6.120;2023-05-02T05:55:55;100042.00;;;9.41;87.71
79048;BME280;68680;50.764;6.120;2023-05-02T05:58:21;100041.56;;;9.38;87.87
79048;BME280;68680;50.764;6.120;2023-05-02T06:00:46;100042.97;;;9.27;87.56
79048;BME280;68680;50.764;6.120;2023-05-02T06:03:12;100050.34;;;9.25;87.81
79048;BME280;68680;50.764;6.120;2023-05-02T06:05:38;100049.31;;;9.26;88.41
79048;BME280;68680;50.764;6.120;2023-05-02T06:08:04;100056.91;;;9.29;87.61
79048;BME280;68680;50.764;6.120;2023-05-02T06:10:31;100060.63;;;9.41;87.83
79048;BME280;68680;50.764;6.120;2023-05-02T06:12:57;100067.56;;;9.29;87.11
79048;BME280;68680;50.764;6.120;2023-05-02T06:15:23;100070.44;;;9.41;86.56
79048;BME280;68680;50.764;6.120;2023-05-02T06:17:50;100072.06;;;9.29;87.18
79048;BME280;68680;50.764;6.120;2023-05-02T06:20:16;100075.75;;;9.34;86.75
79048;BME280;68680;50.764;6.120;2023-05-02T06:22:41;100071.88;;;9.30;87.65
79048;BME280;68680;50.764;6.120;2023-05-02T06:25:08;100074.75;;;9.35;87.75
79048;BME280;68680;50.764;6.120;2023-05-02T06:27:35;100079.47;;;9.46;87.37
79048;BME280;68680;50.764;6.120;2023-05-02T06:30:01;100082.97;;;9.54;87.36
79048;BME280;68680;50.764;6.120;2023-05-02T06:32:29;100086.25;;;9.49;86.27
79048;BME280;68680;50.764;6.120;2023-05-02T06:34:55;100093.16;;;9.43;86.81
79048;BME280;68680;50.764;6.120;2023-05-02T06:37:21;100085.84;;;9.52;86.64
79048;BME280;68680;50.764;6.120;2023-05-02T06:39:46;100092.97;;;9.45;86.18
79048;BME280;68680;50.764;6.120;2023-05-02T06:42:12;100095.25;;;9.48;86.65
79048;BME280;68680;50.764;6.120;2023-05-02T06:44:39;100096.88;;;9.42;86.36
79048;BME280;68680;50.764;6.120;2023-05-02T06:47:05;100101.19;;;9.50;88.17
79048;BME280;68680;50.764;6.120;2023-05-02T06:49:31;100103.84;;;9.50;88.12
79048;BME280;68680;50.764;6.120;2023-05-02T06:51:56;100114.13;;;9.53;87.97
79048;BME280;68680;50.764;6.120;2023-05-02T06:54:22;100115.53;;;9.42;88.40
79048;BME280;68680;50.764;6.120;2023-05-02T06:56:48;100116.09;;;9.31;88.65
79048;BME280;68680;50.764;6.120;2023-05-02T06:59:14;100124.75;;;9.46;89.24
79048;BME280;68680;50.764;6.120;2023-05-02T07:01:42;100124.69;;;9.33;89.91
79048;BME280;68680;50.764;6.120;2023-05-02T07:04:08;100126.53;;;9.33;90.00
79048;BME280;68680;50.764;6.120;2023-05-02T07:06:34;100131.44;;;9.29;90.75
79048;BME280;68680;50.764;6.120;2023-05-02T07:08:59;100134.47;;;9.20;90.56
79048;BME280;68680;50.764;6.120;2023-05-02T07:11:25;100136.50;;;9.18;91.03
79048;BME280;68680;50.764;6.120;2023-05-02T07:13:51;100138.59;;;9.29;91.57
79048;BME280;68680;50.764;6.120;2023-05-02T07:16:17;100134.13;;;9.36;91.96
79048;BME280;68680;50.764;6.120;2023-05-02T07:18:44;100137.84;;;9.41;91.12
79048;BME280;68680;50.764;6.120;2023-05-02T07:21:10;100141.56;;;9.54;91.02
79048;BME280;68680;50.764;6.120;2023-05-02T07:23:36;100153.22;;;9.53;89.14
79048;BME280;68680;50.764;6.120;2023-05-02T07:26:02;100151.41;;;9.60;89.17
79048;BME280;68680;50.764;6.120;2023-05-02T07:28:28;100144.25;;;9.67;88.77
79048;BME280;68680;50.764;6.120;2023-05-02T07:30:54;100155.97;;;9.72;87.73
79048;BME280;68680;50.764;6.120;2023-05-02T07:33:20;100161.06;;;9.74;87.18
79048;BME280;68680;50.764;6.120;2023-05-02T07:35:47;100169.28;;;9.72;87.71
79048;BME280;68680;50.764;6.120;2023-05-02T07:38:13;100164.16;;;9.77;87.31
79048;BME280;68680;50.764;6.120;2023-05-02T07:40:38;100164.56;;;9.81;87.45
79048;BME280;68680;50.764;6.120;2023-05-02T07:43:04;100171.13;;;9.85;88.92
79048;BME280;68680;50.764;6.120;2023-05-02T07:45:30;100165.81;;;9.85;88.03
79048;BME280;68680;50.764;6.120;2023-05-02T07:47:56;100172.00;;;9.99;88.09
79048;BME280;68680;50.764;6.120;2023-05-02T07:50:22;100172.19;;;9.97;86.81
79048;BME280;68680;50.764;6.120;2023-05-02T07:52:49;100168.94;;;9.95;87.38
79048;BME280;68680;50.764;6.120;2023-05-02T07:55:15;100176.47;;;9.92;87.28
79048;BME280;68680;50.764;6.120;2023-05-02T07:57:41;100174.69;;;10.05;87.24
79048;BME280;68680;50.764;6.120;2023-05-02T08:00:08;100180.66;;;10.20;87.31
79048;BME280;68680;50.764;6.120;2023-05-02T08:02:34;100183.50;;;10.12;85.38
79048;BME280;68680;50.764;6.120;2023-05-02T08:05:00;100184.34;;;10.13;86.00
79048;BME280;68680;50.764;6.120;2023-05-02T08:07:25;100191.13;;;10.22;85.35
79048;BME280;68680;50.764;6.120;2023-05-02T08:09:52;100189.09;;;10.31;85.54
79048;BME280;68680;50.764;6.120;2023-05-02T08:12:18;100194.03;;;10.47;84.52
79048;BME280;68680;50.764;6.120;2023-05-02T08:14:44;100201.19;;;10.40;81.20
79048;BME280;68680;50.764;6.120;2023-05-02T08:17:10;100204.47;;;10.35;81.63
79048;BME280;68680;50.764;6.120;2023-05-02T08:19:36;100208.56;;;10.31;81.22
79048;BME280;68680;50.764;6.120;2023-05-02T08:22:01;100199.91;;;10.16;80.70
79048;BME280;68680;50.764;6.120;2023-05-02T08:24:27;100211.00;;;10.13;81.72
79048;BME280;68680;50.764;6.120;2023-05-02T08:26:54;100209.13;;;10.13;82.52
79048;BME280;68680;50.764;6.120;2023-05-02T08:29:22;100208.56;;;10.31;81.67
79048;BME280;68680;50.764;6.120;2023-05-02T08:31:48;100208.38;;;10.39;80.57
79048;BME280;68680;50.764;6.120;2023-05-02T08:34:13;100210.03;;;10.47;78.51
79048;BME280;68680;50.764;6.120;2023-05-02T08:36:39;100212.06;;;10.58;79.35
79048;BME280;68680;50.764;6.120;2023-05-02T08:39:05;100211.66;;;10.67;78.86
79048;BME280;68680;50.764;6.120;2023-05-02T08:41:31;100216.41;;;10.65;77.22
79048;BME280;68680;50.764;6.120;2023-05-02T08:43:58;100217.00;;;10.67;78.28
79048;BME280;68680;50.764;6.120;2023-05-02T08:46:25;100223.56;;;10.78;79.15
79048;BME280;68680;50.764;6.120;2023-05-02T08:48:54;100227.25;;;10.64;77.42
79048;BME280;68680;50.764;6.120;2023-05-02T08:51:23;100234.03;;;10.47;75.77
79048;BME280;68680;50.764;6.120;2023-05-02T08:53:51;100230.94;;;10.63;78.05
79048;BME280;68680;50.764;6.120;2023-05-02T08:56:16;100222.91;;;11.09;76.52
79048;BME280;68680;50.764;6.120;2023-05-02T08:58:42;100238.91;;;11.29;73.11
79048;BME280;68680;50.764;6.120;2023-05-02T09:01:14;100233.31;;;11.30;70.13
79048;BME280;68680;50.764;6.120;2023-05-02T09:03:42;100238.81;;;11.55;73.63
79048;BME280;68680;50.764;6.120;2023-05-02T09:06:11;100241.75;;;11.40;70.24
79048;BME280;68680;50.764;6.120;2023-05-02T09:08:39;100241.50;;;11.42;71.40
79048;BME280;68680;50.764;6.120;2023-05-02T09:11:06;100251.75;;;11.58;71.68
79048;BME280;68680;50.764;6.120;2023-05-02T09:13:35;100257.72;;;11.53;69.80
79048;BME280;68680;50.764;6.120;2023-05-02T09:16:03;100262.63;;;11.76;69.69
79048;BME280;68680;50.764;6.120;2023-05-02T09:18:33;100260.69;;;11.90;69.72
79048;BME280;68680;50.764;6.120;2023-05-02T09:21:00;100263.41;;;11.83;69.50
79048;BME280;68680;50.764;6.120;2023-05-02T09:23:36;100262.50;;;12.03;71.38
79048;BME280;68680;50.764;6.120;2023-05-02T09:26:14;100265.31;;;12.14;69.28
79048;BME280;68680;50.764;6.120;2023-05-02T09:28:43;100270.38;;;11.84;67.52
79048;BME280;68680;50.764;6.120;2023-05-02T09:31:12;100267.34;;;11.74;65.81
79048;BME280;68680;50.764;6.120;2023-05-02T09:33:40;100273.66;;;11.93;71.59
79048;BME280;68680;50.764;6.120;2023-05-02T09:36:07;100272.06;;;11.79;68.15
79048;BME280;68680;50.764;6.120;2023-05-02T09:38:33;100275.75;;;11.78;69.45
79048;BME280;68680;50.764;6.120;2023-05-02T09:40:59;100277.56;;;11.90;69.60
79048;BME280;68680;50.764;6.120;2023-05-02T09:43:25;100287.34;;;11.45;65.54
79048;BME280;68680;50.764;6.120;2023-05-02T09:45:59;100294.53;;;11.45;70.43
79048;BME280;68680;50.764;6.120;2023-05-02T09:48:27;100288.81;;;11.28;68.67
79048;BME280;68680;50.764;6.120;2023-05-02T09:50:55;100301.75;;;11.31;69.05
79048;BME280;68680;50.764;6.120;2023-05-02T09:53:23;100300.69;;;11.45;67.52
79048;BME280;68680;50.764;6.120;2023-05-02T09:55:59;100292.44;;;11.60;66.81
79048;BME280;68680;50.764;6.120;2023-05-02T09:58:25;100299.31;;;11.94;66.64
79048;BME280;68680;50.764;6.120;2023-05-02T10:00:51;100294.94;;;12.13;63.60
79048;BME280;68680;50.764;6.120;2023-05-02T10:03:18;100295.66;;;12.33;66.54
79048;BME280;68680;50.764;6.120;2023-05-02T10:05:45;100295.84;;;12.38;63.68
79048;BME280;68680;50.764;6.120;2023-05-02T10:08:15;100299.28;;;12.07;61.27
79048;BME280;68680;50.764;6.120;2023-05-02T10:10:49;100307.16;;;11.96;61.71
79048;BME280;68680;50.764;6.120;2023-05-02T10:13:20;100315.47;;;11.74;63.28
79048;BME280;68680;50.764;6.120;2023-05-02T10:15:53;100313.81;;;11.73;64.31
79048;BME280;68680;50.764;6.120;2023-05-02T10:18:27;100310.06;;;11.87;63.71
79048;BME280;68680;50.764;6.120;2023-05-02T10:20:57;100308.00;;;11.89;64.48
79048;BME280;68680;50.764;6.120;2023-05-02T10:23:29;100308.97;;;12.02;60.82
79048;BME280;68680;50.764;6.120;2023-05-02T10:25:57;100312.66;;;12.07;64.07
79048;BME280;68680;50.764;6.120;2023-05-02T10:28:23;100315.41;;;11.87;62.61
79048;BME280;68680;50.764;6.120;2023-05-02T10:30:50;100308.41;;;11.93;63.66
79048;BME280;68680;50.764;6.120;2023-05-02T10:33:20;100313.28;;;12.03;64.90
79048;BME280;68680;50.764;6.120;2023-05-02T10:35:46;100316.47;;;11.67;61.32
79048;BME280;68680;50.764;6.120;2023-05-02T10:38:15;100316.09;;;11.57;61.65
79048;BME280;68680;50.764;6.120;2023-05-02T10:40:51;100306.59;;;11.67;63.19
79048;BME280;68680;50.764;6.120;2023-05-02T10:43:18;100313.59;;;11.81;62.94
79048;BME280;68680;50.764;6.120;2023-05-02T10:45:44;100300.72;;;12.10;62.64
79048;BME280;68680;50.764;6.120;2023-05-02T10:48:18;100311.09;;;12.31;63.93
79048;BME280;68680;50.764;6.120;2023-05-02T10:50:46;100307.06;;;12.15;63.09
79048;BME280;68680;50.764;6.120;2023-05-02T10:53:28;100317.84;;;11.96;65.58
79048;BME280;68680;50.764;6.120;2023-05-02T10:56:16;100310.00;;;12.01;65.90
79048;BME280;68680;50.764;6.120;2023-05-02T10:58:43;100315.19;;;11.89;65.11
79048;BME280;68680;50.764;6.120;2023-05-02T11:01:32;100315.22;;;11.69;64.93
79048;BME280;68680;50.764;6.120;2023-05-02T11:03:59;100308.84;;;11.77;65.41
79048;BME280;68680;50.764;6.120;2023-05-02T11:06:28;100310.28;;;11.79;65.35
79048;BME280;68680;50.764;6.120;2023-05-02T11:09:31;100313.16;;;11.78;64.56
79048;BME280;68680;50.764;6.120;2023-05-02T11:11:59;100310.69;;;12.34;64.29
79048;BME280;68680;50.764;6.120;2023-05-02T11:14:46;100305.50;;;12.70;62.07
79048;BME280;68680;50.764;6.120;2023-05-02T11:17:12;100306.84;;;12.86;61.48
79048;BME280;68680;50.764;6.120;2023-05-02T11:20:26;100315.81;;;12.98;62.83
79048;BME280;68680;50.764;6.120;2023-05-02T11:22:58;100310.81;;;12.77;61.32
79048;BME280;68680;50.764;6.120;2023-05-02T11:25:45;100310.19;;;12.50;63.97
79048;BME280;68680;50.764;6.120;2023-05-02T11:28:41;100321.28;;;12.47;63.53
79048;BME280;68680;50.764;6.120;2023-05-02T11:31:09;100302.94;;;12.57;64.44
79048;BME280;68680;50.764;6.120;2023-05-02T11:33:55;100314.59;;;12.69;61.94
79048;BME280;68680;50.764;6.120;2023-05-02T11:36:31;100309.03;;;12.64;63.23
79048;BME280;68680;50.764;6.120;2023-05-02T11:38:58;100308.78;;;12.72;64.32
79048;BME280;68680;50.764;6.120;2023-05-02T11:41:38;100301.31;;;12.81;61.81
79048;BME280;68680;50.764;6.120;2023-05-02T11:44:06;100317.88;;;12.96;62.66
79048;BME280;68680;50.764;6.120;2023-05-02T11:46:32;100318.59;;;13.10;59.13
79048;BME280;68680;50.764;6.120;2023-05-02T11:49:01;100312.31;;;12.98;62.19
79048;BME280;68680;50.764;6.120;2023-05-02T11:51:27;100313.75;;;12.94;59.23
79048;BME280;68680;50.764;6.120;2023-05-02T11:53:53;100317.19;;;12.76;61.75
79048;BME280;68680;50.764;6.120;2023-05-02T11:56:23;100321.63;;;12.89;60.01
79048;BME280;68680;50.764;6.120;2023-05-02T11:58:57;100317.16;;;13.07;58.91
79048;BME280;68680;50.764;6.120;2023-05-02T12:01:24;100319.72;;;13.45;59.28
79048;BME280;68680;50.764;6.120;2023-05-02T12:04:01;100318.13;;;13.63;58.91
79048;BME280;68680;50.764;6.120;2023-05-02T12:06:27;100324.88;;;13.47;58.14
79048;BME280;68680;50.764;6.120;2023-05-02T12:09:06;100333.97;;;13.64;57.40
79048;BME280;68680;50.764;6.120;2023-05-02T12:11:32;100325.41;;;13.55;55.07
79048;BME280;68680;50.764;6.120;2023-05-02T12:13:58;100326.19;;;14.47;57.26
79048;BME280;68680;50.764;6.120;2023-05-02T12:16:25;100328.75;;;14.06;54.64
79048;BME280;68680;50.764;6.120;2023-05-02T12:18:51;100345.53;;;14.01;56.99
79048;BME280;68680;50.764;6.120;2023-05-02T12:21:17;100349.03;;;13.40;57.79
79048;BME280;68680;50.764;6.120;2023-05-02T12:23:43;100350.00;;;13.28;60.85
79048;BME280;68680;50.764;6.120;2023-05-02T12:26:17;100352.50;;;13.23;59.77
79048;BME280;68680;50.764;6.120;2023-05-02T12:28:47;100349.00;;;13.22;59.85
79048;BME280;68680;50.764;6.120;2023-05-02T12:31:14;100353.84;;;13.07;57.67
79048;BME280;68680;50.764;6.120;2023-05-02T12:33:45;100354.81;;;12.56;60.54
79048;BME280;68680;50.764;6.120;2023-05-02T12:36:12;100361.28;;;12.73;60.76
79048;BME280;68680;50.764;6.120;2023-05-02T12:38:38;100358.72;;;13.16;60.74
79048;BME280;68680;50.764;6.120;2023-05-02T12:41:04;100355.38;;;13.46;62.03
79048;BME280;68680;50.764;6.120;2023-05-02T12:43:45;100359.50;;;13.24;60.00
79048;BME280;68680;50.764;6.120;2023-05-02T12:46:11;100356.53;;;13.56;55.58
79048;BME280;68680;50.764;6.120;2023-05-02T12:48:37;100356.94;;;13.96;54.73
79048;BME280;68680;50.764;6.120;2023-05-02T12:51:04;100364.75;;;13.80;54.41
79048;BME280;68680;50.764;6.120;2023-05-02T12:53:41;100357.47;;;13.44;57.50
79048;BME280;68680;50.764;6.120;2023-05-02T12:56:07;100366.34;;;13.44;58.65
79048;BME280;68680;50.764;6.120;2023-05-02T12:58:41;100363.69;;;14.17;55.22
79048;BME280;68680;50.764;6.120;2023-05-02T13:01:07;100371.81;;;15.30;50.85
79048;BME280;68680;50.764;6.120;2023-05-02T13:03:33;100372.63;;;15.19;51.70
79048;BME280;68680;50.764;6.120;2023-05-02T13:05:59;100380.16;;;14.99;52.85
79048;BME280;68680;50.764;6.120;2023-05-02T13:08:26;100378.22;;;15.17;51.56